Terminal Aerodrome Forecast
Issued by NWS

Home | Current Version | Previous Version | Text Only | Print | Product List | Glossary On
Versions: 1 2 3 4 5 6 7 8 9 10 11 12 13 14 15 16 17 18
000
FTUS45 KTFX 241720
TAFCTB
TAF
KCTB 241720Z 2418/2518 27020G32KT P6SM SCT200
     FM242000 27010G18KT P6SM FEW250
     FM250600 26022G41KT P6SM BKN250 WS020/26055KT
     FM251400 26020G33KT P6SM BKN200
     FM251500 28018G26KT P6SM VCSH BKN040=

USA.gov is the U.S. government's official web portal to all federal, state and local government web resources and services.